Time;durP1;ratioP1;P1;durP2;ratioP2;P2;SDS_P1;SDS_P2;PMS_P1;PMS_P2;Temp;Humidity;BMP_temperature;BMP_pressure;BME280_temperature;BME280_humidity;BME280_pressure;Samples;Min_cycle;Max_cycle;Signal;HPM_P1;HPM_P2
2022/03/29 00:03:00;;;;;;;16.13;7.90;;;12.00;56.70;;;;;;20512755;29;20244;-65
2022/03/29 00:13:02;;;;;;;19.93;8.03;;;11.90;57.20;;;;;;20511204;28;20248;-66
2022/03/29 00:23:05;;;;;;;20.47;8.23;;;11.80;57.40;;;;;;20493833;28;20583;-65
2022/03/29 00:33:07;;;;;;;16.83;8.10;;;11.80;57.60;;;;;;20510135;28;20630;-66
2022/03/29 00:43:10;;;;;;;16.73;7.37;;;11.80;57.60;;;;;;20492597;28;20213;-65
2022/03/29 00:53:12;;;;;;;14.57;8.27;;;11.70;57.90;;;;;;20508613;29;20239;-65
2022/03/29 01:03:15;;;;;;;16.27;7.60;;;11.70;58.90;;;;;;20459837;28;20210;-66
2022/03/29 01:13:19;;;;;;;15.73;8.20;;;11.50;58.70;;;;;;20410148;29;20242;-67
2022/03/29 01:23:20;;;;;;;12.40;7.60;;;11.50;59.10;;;;;;20427688;29;20211;-66
2022/03/29 01:33:23;;;;;;;16.60;8.37;;;11.40;58.80;;;;;;20427167;29;20256;-64
2022/03/29 01:43:24;;;;;;;16.37;8.00;;;11.40;59.30;;;;;;20430522;29;20227;-66
2022/03/29 01:53:27;;;;;;;11.00;7.90;;;11.40;59.60;;;;;;20442761;29;20585;-64
2022/03/29 02:03:29;;;;;;;16.17;7.50;;;11.30;60.00;;;;;;20442402;29;20608;-66
2022/03/29 02:13:31;;;;;;;15.33;8.30;;;11.20;60.30;;;;;;20444432;29;20340;-65
2022/03/29 02:23:33;;;;;;;13.80;8.53;;;11.10;60.70;;;;;;20441390;29;20219;-66
2022/03/29 02:33:34;;;;;;;14.53;8.80;;;11.20;61.60;;;;;;20445874;29;20291;-67
2022/03/29 02:43:36;;;;;;;14.53;8.90;;;11.20;62.00;;;;;;20443293;29;20219;-66
2022/03/29 02:53:38;;;;;;;14.47;9.33;;;11.20;62.30;;;;;;20438650;29;20236;-65
2022/03/29 03:03:40;;;;;;;21.37;9.57;;;11.20;63.20;;;;;;20434596;29;20215;-67
2022/03/29 03:13:42;;;;;;;21.03;9.63;;;11.10;63.60;;;;;;20416668;29;20324;-65
2022/03/29 03:23:44;;;;;;;22.10;9.90;;;11.20;63.60;;;;;;20436384;29;20216;-65
2022/03/29 03:33:45;;;;;;;17.57;9.13;;;10.90;64.60;;;;;;20436206;29;20243;-67
2022/03/29 03:43:47;;;;;;;13.53;9.27;;;10.90;64.90;;;;;;20437954;29;20224;-66
2022/03/29 03:53:50;;;;;;;16.27;9.37;;;10.80;64.90;;;;;;20439188;29;20242;-69
2022/03/29 04:03:51;;;;;;;15.63;8.97;;;10.80;65.10;;;;;;20433991;29;20576;-69
2022/03/29 04:13:58;;;;;;;14.53;8.83;;;10.80;65.70;;;;;;20432103;29;20244;-65
2022/03/29 04:24:00;;;;;;;13.47;8.17;;;10.80;66.00;;;;;;20415369;29;20204;-65
2022/03/29 04:34:02;;;;;;;13.77;8.80;;;10.70;66.00;;;;;;20431487;29;20254;-71
2022/03/29 04:44:04;;;;;;;14.30;8.97;;;10.70;66.30;;;;;;20413394;29;20216;-70
2022/03/29 04:54:06;;;;;;;24.13;9.43;;;10.70;66.00;;;;;;20428668;29;20240;-66
2022/03/29 05:04:11;;;;;;;34.87;15.00;;;10.60;66.10;;;;;;20425115;29;20208;-67
2022/03/29 05:14:13;;;;;;;23.13;10.87;;;10.60;66.90;;;;;;20425808;29;20252;-66
2022/03/29 05:24:15;;;;;;;31.77;10.70;;;10.40;67.40;;;;;;20426950;29;20678;-66
2022/03/29 05:34:17;;;;;;;43.03;11.37;;;10.40;68.00;;;;;;20409578;29;20655;-66
2022/03/29 05:44:20;;;;;;;36.50;10.47;;;10.50;68.30;;;;;;20485061;28;20211;-65
2022/03/29 05:54:22;;;;;;;28.73;10.93;;;10.50;68.90;;;;;;20486887;28;20432;-70
2022/03/29 06:04:25;;;;;;;22.47;10.57;;;10.40;69.20;;;;;;20504521;28;20712;-70
2022/03/29 06:14:27;;;;;;;29.47;11.10;;;10.50;69.90;;;;;;20504905;28;20729;-73
2022/03/29 06:24:29;;;;;;;34.43;11.97;;;10.60;70.40;;;;;;20487006;28;20671;-72
2022/03/29 06:34:30;;;;;;;23.80;11.13;;;10.70;70.60;;;;;;20526567;28;20253;-71
2022/03/29 06:44:33;;;;;;;30.10;10.97;;;10.80;70.60;;;;;;20518065;28;20219;-72
2022/03/29 06:54:35;;;;;;;35.33;11.23;;;11.10;69.80;;;;;;20500118;28;20750;-72
2022/03/29 07:04:37;;;;;;;35.27;12.47;;;11.10;70.50;;;;;;20477166;28;20218;-71
2022/03/29 07:14:40;;;;;;;34.43;12.07;;;11.30;70.80;;;;;;20441905;29;20238;-72
2022/03/29 07:24:41;;;;;;;30.17;11.93;;;11.50;70.80;;;;;;20435856;29;20663;-71
2022/03/29 07:34:43;;;;;;;35.83;11.57;;;11.70;70.90;;;;;;20341799;29;20723;-71
2022/03/29 07:44:45;;;;;;;34.23;11.83;;;11.80;70.10;;;;;;20355128;29;20216;-70
2022/03/29 07:54:47;;;;;;;30.33;12.20;;;12.30;69.80;;;;;;20354758;29;20686;-71
2022/03/29 08:04:49;;;;;;;34.53;13.07;;;12.40;69.60;;;;;;20367832;29;20219;-72
2022/03/29 08:14:53;;;;;;;35.47;15.07;;;12.50;70.40;;;;;;20353265;29;20292;-71
2022/03/29 08:24:55;;;;;;;37.10;16.67;;;12.80;69.50;;;;;;20352216;29;20243;-72
2022/03/29 08:34:57;;;;;;;50.27;20.50;;;13.10;69.10;;;;;;20442801;28;20253;-71
2022/03/29 08:44:59;;;;;;;45.13;17.87;;;13.50;68.20;;;;;;20430650;29;20601;-72
2022/03/29 08:55:03;;;;;;;29.73;17.23;;;13.50;68.70;;;;;;20431439;29;20263;-71
2022/03/29 09:05:12;;;;;;;32.33;16.87;;;13.80;67.70;;;;;;20429225;29;20212;-70
2022/03/29 09:15:15;;;;;;;30.77;16.47;;;14.10;67.00;;;;;;20428307;29;20244;-71
2022/03/29 09:25:22;;;;;;;32.93;15.50;;;14.40;66.10;;;;;;20427781;29;20211;-71
2022/03/29 09:35:24;;;;;;;31.03;16.57;;;14.70;65.40;;;;;;20427219;29;20282;-72
2022/03/29 09:45:40;;;;;;;33.77;16.87;;;15.00;64.40;;;;;;20427368;29;20208;-71
2022/03/29 09:55:42;;;;;;;30.40;17.53;;;15.40;62.60;;;;;;20426246;29;20391;-71
2022/03/29 10:05:46;;;;;;;31.73;17.70;;;15.60;62.50;;;;;;20430621;29;20290;-70
2022/03/29 10:15:48;;;;;;;31.17;18.33;;;15.90;61.10;;;;;;20442426;29;20317;-70
2022/03/29 10:25:53;;;;;;;31.93;19.00;;;16.10;59.80;;;;;;20440514;29;20278;-72
2022/03/29 10:36:06;;;;;;;29.43;17.10;;;16.40;58.50;;;;;;20439911;29;20326;-71
2022/03/29 10:46:25;;;;;;;36.07;15.90;;;16.50;58.10;;;;;;20438831;29;20636;-71
2022/03/29 10:56:27;;;;;;;36.73;15.47;;;16.60;57.00;;;;;;20439040;29;20323;-71
2022/03/29 11:06:29;;;;;;;36.40;16.90;;;16.70;56.20;;;;;;20435386;29;20216;-72
2022/03/29 11:16:31;;;;;;;29.67;17.07;;;16.80;55.60;;;;;;20433833;29;20726;-72
2022/03/29 11:26:35;;;;;;;30.33;17.60;;;17.00;55.30;;;;;;20436523;29;20240;-71
2022/03/29 11:36:39;;;;;;;26.63;16.33;;;17.10;55.00;;;;;;20436522;29;20330;-71
2022/03/29 11:46:49;;;;;;;32.60;17.70;;;17.30;54.70;;;;;;20435192;29;20215;-71
2022/03/29 11:56:51;;;;;;;26.83;16.30;;;17.40;54.20;;;;;;20433703;29;20245;-71
2022/03/29 12:06:54;;;;;;;25.80;16.93;;;17.60;54.00;;;;;;20434270;29;20683;-72
2022/03/29 12:17:03;;;;;;;28.33;16.63;;;17.80;53.40;;;;;;20441883;29;20236;-74
2022/03/29 12:27:08;;;;;;;25.03;15.07;;;17.90;52.50;;;;;;20430354;29;20713;-72
2022/03/29 12:37:14;;;;;;;23.77;15.13;;;18.10;52.10;;;;;;20429803;29;20324;-72
2022/03/29 12:47:16;;;;;;;24.63;14.77;;;18.40;51.50;;;;;;20430087;29;20210;-72
2022/03/29 12:57:21;;;;;;;32.87;14.73;;;18.50;50.70;;;;;;20428707;29;20242;-72
2022/03/29 13:07:48;;;;;;;27.60;14.60;;;18.80;50.70;;;;;;20425377;29;20219;-72
2022/03/29 13:17:50;;;;;;;23.30;14.60;;;18.90;50.20;;;;;;20426340;29;20250;-71
2022/03/29 13:27:51;;;;;;;30.73;15.70;;;18.90;49.80;;;;;;20426783;29;20239;-71
2022/03/29 13:37:55;;;;;;;22.07;14.23;;;18.90;49.60;;;;;;20426012;29;20234;-70
2022/03/29 13:47:58;;;;;;;20.90;14.10;;;18.90;49.40;;;;;;20425352;29;20220;-72
2022/03/29 13:58:00;;;;;;;23.93;13.67;;;19.00;49.50;;;;;;20453980;28;20681;-71
2022/03/29 14:08:02;;;;;;;24.07;14.20;;;19.10;49.20;;;;;;20426853;29;20209;-70
2022/03/29 14:18:07;;;;;;;29.83;18.17;;;19.10;49.10;;;;;;20492042;28;20214;-71
2022/03/29 14:28:11;;;;;;;21.40;14.03;;;19.00;48.90;;;;;;20519760;28;20718;-73
2022/03/29 14:38:13;;;;;;;24.10;14.00;;;19.00;48.90;;;;;;20501406;28;20550;-68
2022/03/29 14:48:15;;;;;;;25.57;14.80;;;18.70;49.00;;;;;;20489929;28;20214;-70
2022/03/29 14:58:37;;;;;;;27.13;13.77;;;18.60;49.10;;;;;;20438545;29;20220;-71
2022/03/29 15:08:40;;;;;;;25.00;13.87;;;18.50;49.10;;;;;;20448159;29;20725;-72
2022/03/29 15:18:42;;;;;;;24.27;13.83;;;18.40;49.40;;;;;;20438383;29;20581;-72
2022/03/29 15:28:45;;;;;;;21.33;14.10;;;18.30;49.70;;;;;;20491156;28;20246;-71
2022/03/29 15:38:47;;;;;;;21.43;13.90;;;18.10;49.90;;;;;;20514356;28;20213;-74
2022/03/29 15:48:50;;;;;;;22.53;11.47;;;18.00;50.00;;;;;;20513875;28;20233;-69
2022/03/29 15:58:52;;;;;;;16.40;11.00;;;17.90;49.10;;;;;;20513177;28;20689;-73
2022/03/29 16:08:54;;;;;;;25.83;11.90;;;17.60;49.90;;;;;;20512029;28;20247;-72
2022/03/29 16:18:56;;;;;;;15.00;10.80;;;17.40;50.60;;;;;;20511943;28;20665;-73
2022/03/29 16:28:59;;;;;;;25.20;12.87;;;17.30;51.00;;;;;;20510651;28;20239;-75
2022/03/29 16:39:02;;;;;;;23.43;13.37;;;17.20;53.60;;;;;;20472110;28;20215;-73
2022/03/29 16:49:05;;;;;;;18.47;13.07;;;17.10;55.20;;;;;;20439342;29;20239;-72
2022/03/29 16:59:07;;;;;;;19.10;13.60;;;17.00;55.90;;;;;;20482943;28;20225;-67
2022/03/29 17:09:12;;;;;;;22.20;14.20;;;16.80;56.20;;;;;;20504761;28;20274;-64
2022/03/29 17:19:14;;;;;;;22.77;14.10;;;16.70;57.70;;;;;;20467356;28;20616;-72
2022/03/29 17:29:16;;;;;;;22.67;14.73;;;16.60;58.00;;;;;;20408505;29;20273;-69
2022/03/29 17:39:18;;;;;;;22.17;14.37;;;16.40;58.60;;;;;;20421907;29;20211;-73
2022/03/29 17:49:20;;;;;;;21.83;14.70;;;16.20;58.90;;;;;;20424807;29;20646;-70
2022/03/29 17:59:22;;;;;;;19.53;13.73;;;16.10;59.70;;;;;;20445491;28;20222;-69
2022/03/29 18:09:23;;;;;;;24.40;16.20;;;16.00;59.60;;;;;;20425936;29;20236;-72
2022/03/29 18:19:25;;;;;;;25.33;15.53;;;15.90;60.50;;;;;;20410209;29;20215;-72
2022/03/29 18:29:27;;;;;;;22.57;16.33;;;15.80;60.90;;;;;;20441427;28;20243;-73
2022/03/29 18:39:29;;;;;;;24.20;16.73;;;15.80;61.60;;;;;;20464602;28;20711;-73
2022/03/29 18:49:33;;;;;;;22.57;15.20;;;15.70;61.80;;;;;;20491573;28;20240;-71
2022/03/29 18:59:35;;;;;;;22.60;14.60;;;15.70;61.80;;;;;;20515315;28;20216;-72
2022/03/29 19:09:38;;;;;;;22.47;15.17;;;15.60;62.00;;;;;;20510926;28;20323;-70
2022/03/29 19:19:40;;;;;;;22.57;14.80;;;15.60;62.60;;;;;;20514483;28;20216;-72
2022/03/29 19:29:42;;;;;;;22.70;14.87;;;15.60;63.20;;;;;;20519156;28;20755;-72
2022/03/29 19:39:46;;;;;;;24.53;15.80;;;15.50;63.90;;;;;;20500763;28;20254;-72
2022/03/29 19:49:49;;;;;;;29.83;15.13;;;15.40;64.30;;;;;;20512506;28;20238;-72
2022/03/29 19:59:51;;;;;;;21.70;14.60;;;15.20;64.30;;;;;;20511754;28;20243;-70
2022/03/29 20:09:58;;;;;;;27.07;15.40;;;15.20;64.10;;;;;;20492102;28;20238;-73
2022/03/29 20:20:00;;;;;;;24.03;16.30;;;15.10;64.10;;;;;;20510034;28;20219;-73
2022/03/29 20:30:03;;;;;;;25.87;17.70;;;15.00;65.60;;;;;;20492083;28;20249;-72
2022/03/29 20:40:06;;;;;;;21.97;14.53;;;15.00;66.10;;;;;;20508220;28;20218;-72
2022/03/29 20:50:08;;;;;;;25.83;16.07;;;15.10;65.90;;;;;;20506651;28;20266;-72
2022/03/29 21:00:11;;;;;;;26.57;15.77;;;15.10;65.00;;;;;;20503903;28;20218;-71
2022/03/29 21:10:13;;;;;;;24.13;16.57;;;15.00;64.90;;;;;;20454015;28;20251;-72
2022/03/29 21:20:15;;;;;;;25.90;17.07;;;15.00;65.70;;;;;;20523330;28;20660;-71
2022/03/29 21:30:17;;;;;;;24.40;15.33;;;14.90;66.20;;;;;;20507913;28;20254;-71
2022/03/29 21:40:18;;;;;;;26.40;17.03;;;14.80;66.50;;;;;;20507526;28;20254;-73
2022/03/29 21:50:20;;;;;;;24.23;17.13;;;14.70;67.20;;;;;;20506299;28;20236;-71
2022/03/29 22:00:41;;;;;;;26.50;15.13;;;14.60;68.10;;;;;;20508996;28;20210;-71
2022/03/29 22:10:43;;;;;;;24.87;15.50;;;14.60;68.40;;;;;;20528082;28;20647;-72
2022/03/29 22:20:44;;;;;;;21.07;16.03;;;14.50;67.80;;;;;;20462550;29;20220;-73
2022/03/29 22:30:47;;;;;;;23.57;16.33;;;14.30;69.10;;;;;;20438282;29;20249;-72
2022/03/29 22:40:49;;;;;;;24.73;17.07;;;14.40;69.10;;;;;;20440509;29;20207;-72
2022/03/29 22:50:51;;;;;;;28.63;17.43;;;14.40;69.10;;;;;;20422851;29;20310;-72
2022/03/29 23:00:52;;;;;;;25.13;17.53;;;14.40;69.40;;;;;;20438544;29;20672;-71
2022/03/29 23:10:54;;;;;;;31.63;18.97;;;14.30;70.50;;;;;;20437280;29;20317;-71
2022/03/29 23:20:56;;;;;;;27.53;17.63;;;14.10;70.90;;;;;;20436902;29;20705;-71
2022/03/29 23:30:58;;;;;;;25.90;17.23;;;13.80;71.30;;;;;;20436424;29;20247;-71
2022/03/29 23:41:00;;;;;;;31.53;17.63;;;13.70;72.00;;;;;;20436075;29;20208;-72
2022/03/29 23:51:02;;;;;;;31.63;18.17;;;13.70;72.10;;;;;;20434747;29;20572;-70
